sensor_id;sensor_type;location;lat;lon;timestamp;P1;durP1;ratioP1;P2;durP2;ratioP2
18162;SDS011;9206;50.994;4.538;2023-01-23T00:02:16;41.00;;;21.57;;
18162;SDS011;9206;50.994;4.538;2023-01-23T00:05:12;41.77;;;20.73;;
18162;SDS011;9206;50.994;4.538;2023-01-23T00:08:08;36.57;;;21.87;;
18162;SDS011;9206;50.994;4.538;2023-01-23T00:10:55;38.47;;;22.17;;
18162;SDS011;9206;50.994;4.538;2023-01-23T00:13:57;40.93;;;22.53;;
18162;SDS011;9206;50.994;4.538;2023-01-23T00:16:47;44.60;;;22.50;;
18162;SDS011;9206;50.994;4.538;2023-01-23T00:25:23;43.20;;;22.83;;
18162;SDS011;9206;50.994;4.538;2023-01-23T00:28:17;44.23;;;24.03;;
18162;SDS011;9206;50.994;4.538;2023-01-23T00:34:10;47.57;;;24.20;;
18162;SDS011;9206;50.994;4.538;2023-01-23T00:37:03;45.03;;;22.17;;
18162;SDS011;9206;50.994;4.538;2023-01-23T00:39:51;44.77;;;22.13;;
18162;SDS011;9206;50.994;4.538;2023-01-23T00:46:05;37.43;;;20.80;;
18162;SDS011;9206;50.994;4.538;2023-01-23T00:51:44;42.50;;;23.57;;
18162;SDS011;9206;50.994;4.538;2023-01-23T01:00:16;38.37;;;22.00;;
18162;SDS011;9206;50.994;4.538;2023-01-23T01:03:15;45.87;;;22.57;;
18162;SDS011;9206;50.994;4.538;2023-01-23T01:06:09;45.07;;;22.67;;
18162;SDS011;9206;50.994;4.538;2023-01-23T01:09:03;39.13;;;22.03;;
18162;SDS011;9206;50.994;4.538;2023-01-23T01:11:56;40.67;;;21.87;;
18162;SDS011;9206;50.994;4.538;2023-01-23T01:14:45;36.67;;;21.33;;
18162;SDS011;9206;50.994;4.538;2023-01-23T01:17:33;45.83;;;22.70;;
18162;SDS011;9206;50.994;4.538;2023-01-23T01:20:24;42.03;;;21.83;;
18162;SDS011;9206;50.994;4.538;2023-01-23T01:23:13;38.03;;;22.63;;
18162;SDS011;9206;50.994;4.538;2023-01-23T01:26:11;43.57;;;22.40;;
18162;SDS011;9206;50.994;4.538;2023-01-23T01:29:09;42.97;;;22.43;;
18162;SDS011;9206;50.994;4.538;2023-01-23T01:32:19;43.80;;;22.83;;
18162;SDS011;9206;50.994;4.538;2023-01-23T01:35:17;43.47;;;21.90;;
18162;SDS011;9206;50.994;4.538;2023-01-23T01:38:05;43.50;;;23.13;;
18162;SDS011;9206;50.994;4.538;2023-01-23T01:40:59;39.33;;;21.83;;
18162;SDS011;9206;50.994;4.538;2023-01-23T01:43:52;45.07;;;23.20;;
18162;SDS011;9206;50.994;4.538;2023-01-23T01:46:52;52.60;;;23.13;;
18162;SDS011;9206;50.994;4.538;2023-01-23T01:50:02;51.83;;;23.40;;
18162;SDS011;9206;50.994;4.538;2023-01-23T01:52:59;43.00;;;21.93;;
18162;SDS011;9206;50.994;4.538;2023-01-23T01:55:52;50.50;;;23.70;;
18162;SDS011;9206;50.994;4.538;2023-01-23T01:58:46;50.67;;;23.50;;
18162;SDS011;9206;50.994;4.538;2023-01-23T02:07:36;52.63;;;24.93;;
18162;SDS011;9206;50.994;4.538;2023-01-23T02:10:28;45.63;;;24.10;;
18162;SDS011;9206;50.994;4.538;2023-01-23T02:13:20;45.70;;;23.90;;
18162;SDS011;9206;50.994;4.538;2023-01-23T02:16:13;46.43;;;23.17;;
18162;SDS011;9206;50.994;4.538;2023-01-23T02:19:07;52.90;;;24.50;;
18162;SDS011;9206;50.994;4.538;2023-01-23T02:22:21;50.03;;;23.93;;
18162;SDS011;9206;50.994;4.538;2023-01-23T02:25:26;52.03;;;25.67;;
18162;SDS011;9206;50.994;4.538;2023-01-23T02:28:37;48.93;;;24.47;;
18162;SDS011;9206;50.994;4.538;2023-01-23T02:31:33;50.47;;;24.23;;
18162;SDS011;9206;50.994;4.538;2023-01-23T02:34:33;52.17;;;25.23;;
18162;SDS011;9206;50.994;4.538;2023-01-23T02:37:22;56.90;;;25.33;;
18162;SDS011;9206;50.994;4.538;2023-01-23T02:40:30;58.43;;;25.53;;
18162;SDS011;9206;50.994;4.538;2023-01-23T02:46:26;58.57;;;24.67;;
18162;SDS011;9206;50.994;4.538;2023-01-23T02:49:22;51.03;;;24.93;;
18162;SDS011;9206;50.994;4.538;2023-01-23T02:52:10;55.90;;;26.07;;
18162;SDS011;9206;50.994;4.538;2023-01-23T02:55:04;59.23;;;26.73;;
18162;SDS011;9206;50.994;4.538;2023-01-23T02:57:55;55.93;;;26.10;;
18162;SDS011;9206;50.994;4.538;2023-01-23T03:01:09;56.23;;;26.33;;
18162;SDS011;9206;50.994;4.538;2023-01-23T03:03:57;56.43;;;25.67;;
18162;SDS011;9206;50.994;4.538;2023-01-23T03:06:51;62.53;;;27.07;;
18162;SDS011;9206;50.994;4.538;2023-01-23T03:15:38;57.93;;;26.33;;
18162;SDS011;9206;50.994;4.538;2023-01-23T03:18:41;55.53;;;26.73;;
18162;SDS011;9206;50.994;4.538;2023-01-23T03:21:32;57.13;;;26.77;;
18162;SDS011;9206;50.994;4.538;2023-01-23T03:24:32;58.30;;;27.37;;
18162;SDS011;9206;50.994;4.538;2023-01-23T03:27:28;54.77;;;25.70;;
18162;SDS011;9206;50.994;4.538;2023-01-23T03:30:27;49.40;;;24.67;;
18162;SDS011;9206;50.994;4.538;2023-01-23T03:33:28;53.50;;;27.37;;
18162;SDS011;9206;50.994;4.538;2023-01-23T03:36:17;55.17;;;25.97;;
18162;SDS011;9206;50.994;4.538;2023-01-23T03:39:08;51.57;;;25.07;;
18162;SDS011;9206;50.994;4.538;2023-01-23T03:42:13;53.73;;;25.90;;
18162;SDS011;9206;50.994;4.538;2023-01-23T03:45:06;54.97;;;25.10;;
18162;SDS011;9206;50.994;4.538;2023-01-23T03:50:45;51.50;;;24.60;;
18162;SDS011;9206;50.994;4.538;2023-01-23T03:53:43;54.07;;;24.93;;
18162;SDS011;9206;50.994;4.538;2023-01-23T03:56:40;46.63;;;24.00;;
18162;SDS011;9206;50.994;4.538;2023-01-23T03:59:31;49.10;;;24.13;;
18162;SDS011;9206;50.994;4.538;2023-01-23T04:02:26;52.93;;;26.10;;
18162;SDS011;9206;50.994;4.538;2023-01-23T04:05:15;51.43;;;24.17;;
18162;SDS011;9206;50.994;4.538;2023-01-23T04:08:06;52.03;;;23.87;;
18162;SDS011;9206;50.994;4.538;2023-01-23T04:11:05;47.47;;;24.57;;
18162;SDS011;9206;50.994;4.538;2023-01-23T04:14:01;55.07;;;25.03;;
18162;SDS011;9206;50.994;4.538;2023-01-23T04:16:54;53.80;;;25.57;;
18162;SDS011;9206;50.994;4.538;2023-01-23T04:19:44;54.67;;;24.90;;
18162;SDS011;9206;50.994;4.538;2023-01-23T04:22:40;56.33;;;24.90;;
18162;SDS011;9206;50.994;4.538;2023-01-23T04:25:27;42.00;;;22.87;;
18162;SDS011;9206;50.994;4.538;2023-01-23T04:28:16;48.00;;;23.23;;
18162;SDS011;9206;50.994;4.538;2023-01-23T04:36:52;46.80;;;24.60;;
18162;SDS011;9206;50.994;4.538;2023-01-23T04:39:52;48.20;;;23.73;;
18162;SDS011;9206;50.994;4.538;2023-01-23T04:42:59;43.90;;;21.80;;
18162;SDS011;9206;50.994;4.538;2023-01-23T04:48:54;44.70;;;23.40;;
18162;SDS011;9206;50.994;4.538;2023-01-23T04:51:41;43.90;;;23.47;;
18162;SDS011;9206;50.994;4.538;2023-01-23T04:54:33;52.03;;;24.13;;
18162;SDS011;9206;50.994;4.538;2023-01-23T04:57:29;50.83;;;24.97;;
18162;SDS011;9206;50.994;4.538;2023-01-23T05:00:17;47.00;;;24.00;;
18162;SDS011;9206;50.994;4.538;2023-01-23T05:03:16;48.17;;;24.53;;
18162;SDS011;9206;50.994;4.538;2023-01-23T05:09:10;44.13;;;23.00;;
18162;SDS011;9206;50.994;4.538;2023-01-23T05:12:16;51.60;;;24.47;;
18162;SDS011;9206;50.994;4.538;2023-01-23T05:15:13;51.03;;;24.53;;
18162;SDS011;9206;50.994;4.538;2023-01-23T05:18:12;50.93;;;23.27;;
18162;SDS011;9206;50.994;4.538;2023-01-23T05:21:05;41.33;;;22.60;;
18162;SDS011;9206;50.994;4.538;2023-01-23T05:23:59;46.57;;;23.37;;
18162;SDS011;9206;50.994;4.538;2023-01-23T05:26:46;51.30;;;23.70;;
18162;SDS011;9206;50.994;4.538;2023-01-23T05:29:34;51.77;;;22.83;;
18162;SDS011;9206;50.994;4.538;2023-01-23T05:32:28;48.70;;;22.57;;
18162;SDS011;9206;50.994;4.538;2023-01-23T05:38:16;48.77;;;24.23;;
18162;SDS011;9206;50.994;4.538;2023-01-23T05:44:05;49.30;;;23.83;;
18162;SDS011;9206;50.994;4.538;2023-01-23T05:46:52;47.53;;;22.50;;
18162;SDS011;9206;50.994;4.538;2023-01-23T05:49:48;48.20;;;23.33;;
18162;SDS011;9206;50.994;4.538;2023-01-23T05:52:43;52.57;;;23.93;;
18162;SDS011;9206;50.994;4.538;2023-01-23T05:55:37;51.07;;;24.93;;
18162;SDS011;9206;50.994;4.538;2023-01-23T05:58:32;48.40;;;23.73;;
18162;SDS011;9206;50.994;4.538;2023-01-23T06:01:19;45.23;;;23.27;;
18162;SDS011;9206;50.994;4.538;2023-01-23T06:04:15;47.20;;;22.90;;
18162;SDS011;9206;50.994;4.538;2023-01-23T06:07:10;49.23;;;23.23;;
18162;SDS011;9206;50.994;4.538;2023-01-23T06:13:42;46.17;;;24.23;;
18162;SDS011;9206;50.994;4.538;2023-01-23T06:19:59;48.33;;;23.13;;
18162;SDS011;9206;50.994;4.538;2023-01-23T06:22:46;46.53;;;23.30;;
18162;SDS011;9206;50.994;4.538;2023-01-23T06:25:34;48.63;;;24.20;;
18162;SDS011;9206;50.994;4.538;2023-01-23T06:28:24;43.47;;;22.70;;
18162;SDS011;9206;50.994;4.538;2023-01-23T06:31:13;47.33;;;22.30;;
18162;SDS011;9206;50.994;4.538;2023-01-23T06:34:06;50.53;;;22.73;;
18162;SDS011;9206;50.994;4.538;2023-01-23T06:36:59;47.50;;;24.67;;
18162;SDS011;9206;50.994;4.538;2023-01-23T06:39:48;48.40;;;23.67;;
18162;SDS011;9206;50.994;4.538;2023-01-23T06:45:29;47.47;;;24.53;;
18162;SDS011;9206;50.994;4.538;2023-01-23T06:48:18;45.13;;;24.20;;
18162;SDS011;9206;50.994;4.538;2023-01-23T06:51:08;47.73;;;24.07;;
18162;SDS011;9206;50.994;4.538;2023-01-23T06:53:55;46.03;;;22.77;;
18162;SDS011;9206;50.994;4.538;2023-01-23T06:56:44;50.47;;;22.97;;
18162;SDS011;9206;50.994;4.538;2023-01-23T06:59:37;43.93;;;23.43;;
18162;SDS011;9206;50.994;4.538;2023-01-23T07:02:24;44.93;;;23.10;;
18162;SDS011;9206;50.994;4.538;2023-01-23T07:05:15;44.73;;;23.27;;
18162;SDS011;9206;50.994;4.538;2023-01-23T07:08:05;46.43;;;22.90;;
18162;SDS011;9206;50.994;4.538;2023-01-23T07:10:57;43.60;;;23.10;;
18162;SDS011;9206;50.994;4.538;2023-01-23T07:13:47;48.50;;;22.10;;
18162;SDS011;9206;50.994;4.538;2023-01-23T07:16:46;52.00;;;22.70;;
18162;SDS011;9206;50.994;4.538;2023-01-23T07:19:35;42.17;;;21.67;;
18162;SDS011;9206;50.994;4.538;2023-01-23T07:22:23;45.67;;;22.70;;
18162;SDS011;9206;50.994;4.538;2023-01-23T07:25:14;45.07;;;22.40;;
18162;SDS011;9206;50.994;4.538;2023-01-23T07:28:02;45.27;;;22.93;;
18162;SDS011;9206;50.994;4.538;2023-01-23T07:30:56;45.70;;;23.50;;
18162;SDS011;9206;50.994;4.538;2023-01-23T07:33:45;41.77;;;23.73;;
18162;SDS011;9206;50.994;4.538;2023-01-23T07:36:38;49.47;;;22.00;;
18162;SDS011;9206;50.994;4.538;2023-01-23T07:39:28;47.43;;;22.10;;
18162;SDS011;9206;50.994;4.538;2023-01-23T07:45:06;48.47;;;24.37;;
18162;SDS011;9206;50.994;4.538;2023-01-23T07:54:09;48.90;;;22.97;;
18162;SDS011;9206;50.994;4.538;2023-01-23T07:57:04;43.77;;;22.47;;
18162;SDS011;9206;50.994;4.538;2023-01-23T07:59:57;47.30;;;24.43;;
18162;SDS011;9206;50.994;4.538;2023-01-23T08:02:55;40.20;;;21.73;;
18162;SDS011;9206;50.994;4.538;2023-01-23T08:08:34;54.23;;;23.73;;
18162;SDS011;9206;50.994;4.538;2023-01-23T08:11:21;42.70;;;22.43;;
18162;SDS011;9206;50.994;4.538;2023-01-23T08:14:15;43.57;;;21.97;;
18162;SDS011;9206;50.994;4.538;2023-01-23T08:17:02;49.23;;;23.73;;
18162;SDS011;9206;50.994;4.538;2023-01-23T08:19:56;53.20;;;25.00;;
18162;SDS011;9206;50.994;4.538;2023-01-23T08:22:49;49.63;;;22.63;;
18162;SDS011;9206;50.994;4.538;2023-01-23T08:25:39;41.27;;;23.37;;
18162;SDS011;9206;50.994;4.538;2023-01-23T08:28:33;43.47;;;23.73;;
18162;SDS011;9206;50.994;4.538;2023-01-23T08:31:25;46.57;;;24.47;;
18162;SDS011;9206;50.994;4.538;2023-01-23T08:37:08;49.43;;;23.30;;
18162;SDS011;9206;50.994;4.538;2023-01-23T08:39:55;55.97;;;25.07;;
18162;SDS011;9206;50.994;4.538;2023-01-23T08:42:43;51.73;;;24.00;;
18162;SDS011;9206;50.994;4.538;2023-01-23T08:45:34;58.70;;;25.10;;
18162;SDS011;9206;50.994;4.538;2023-01-23T08:48:25;47.73;;;23.90;;
18162;SDS011;9206;50.994;4.538;2023-01-23T08:51:16;44.93;;;23.90;;
18162;SDS011;9206;50.994;4.538;2023-01-23T08:59:54;54.03;;;23.33;;
18162;SDS011;9206;50.994;4.538;2023-01-23T09:02:43;42.57;;;23.30;;
18162;SDS011;9206;50.994;4.538;2023-01-23T09:05:32;49.27;;;24.47;;
18162;SDS011;9206;50.994;4.538;2023-01-23T09:08:26;42.00;;;23.07;;
18162;SDS011;9206;50.994;4.538;2023-01-23T09:14:05;47.03;;;25.53;;
18162;SDS011;9206;50.994;4.538;2023-01-23T09:16:55;50.03;;;25.30;;
18162;SDS011;9206;50.994;4.538;2023-01-23T09:19:48;48.70;;;23.57;;
18162;SDS011;9206;50.994;4.538;2023-01-23T09:22:37;49.30;;;25.23;;
18162;SDS011;9206;50.994;4.538;2023-01-23T09:25:30;47.93;;;25.37;;
18162;SDS011;9206;50.994;4.538;2023-01-23T09:28:20;43.10;;;23.23;;
18162;SDS011;9206;50.994;4.538;2023-01-23T09:31:08;44.90;;;23.27;;
18162;SDS011;9206;50.994;4.538;2023-01-23T09:33:57;46.13;;;24.00;;
18162;SDS011;9206;50.994;4.538;2023-01-23T09:36:46;41.87;;;23.70;;
18162;SDS011;9206;50.994;4.538;2023-01-23T09:39:36;46.30;;;23.57;;
18162;SDS011;9206;50.994;4.538;2023-01-23T09:42:31;47.03;;;24.70;;
18162;SDS011;9206;50.994;4.538;2023-01-23T09:45:21;51.70;;;25.93;;
18162;SDS011;9206;50.994;4.538;2023-01-23T09:48:18;40.67;;;22.87;;
18162;SDS011;9206;50.994;4.538;2023-01-23T09:51:19;41.20;;;23.23;;
18162;SDS011;9206;50.994;4.538;2023-01-23T09:54:15;41.60;;;23.70;;
18162;SDS011;9206;50.994;4.538;2023-01-23T09:57:12;36.23;;;20.97;;
18162;SDS011;9206;50.994;4.538;2023-01-23T10:03:05;41.83;;;23.87;;
18162;SDS011;9206;50.994;4.538;2023-01-23T10:06:03;38.00;;;23.17;;
18162;SDS011;9206;50.994;4.538;2023-01-23T10:09:11;40.70;;;23.70;;
18162;SDS011;9206;50.994;4.538;2023-01-23T10:12:21;42.80;;;24.33;;
18162;SDS011;9206;50.994;4.538;2023-01-23T10:15:22;47.20;;;23.57;;
18162;SDS011;9206;50.994;4.538;2023-01-23T10:18:20;47.83;;;24.60;;
18162;SDS011;9206;50.994;4.538;2023-01-23T10:21:15;38.90;;;23.43;;
18162;SDS011;9206;50.994;4.538;2023-01-23T10:24:21;45.27;;;23.80;;
18162;SDS011;9206;50.994;4.538;2023-01-23T10:30:39;47.93;;;23.50;;
18162;SDS011;9206;50.994;4.538;2023-01-23T10:33:36;47.30;;;24.73;;
18162;SDS011;9206;50.994;4.538;2023-01-23T10:36:28;50.47;;;24.13;;
18162;SDS011;9206;50.994;4.538;2023-01-23T10:39:28;49.83;;;24.30;;
18162;SDS011;9206;50.994;4.538;2023-01-23T10:42:26;41.20;;;22.60;;
18162;SDS011;9206;50.994;4.538;2023-01-23T10:45:15;45.47;;;22.97;;
18162;SDS011;9206;50.994;4.538;2023-01-23T10:51:29;44.67;;;24.17;;
18162;SDS011;9206;50.994;4.538;2023-01-23T10:54:26;44.97;;;25.20;;
18162;SDS011;9206;50.994;4.538;2023-01-23T10:57:28;45.50;;;23.47;;
18162;SDS011;9206;50.994;4.538;2023-01-23T11:00:29;45.97;;;24.17;;
18162;SDS011;9206;50.994;4.538;2023-01-23T11:03:26;44.13;;;24.67;;
18162;SDS011;9206;50.994;4.538;2023-01-23T11:06:19;48.53;;;24.40;;
18162;SDS011;9206;50.994;4.538;2023-01-23T11:09:17;49.57;;;25.17;;
18162;SDS011;9206;50.994;4.538;2023-01-23T11:12:12;50.67;;;25.03;;
18162;SDS011;9206;50.994;4.538;2023-01-23T11:15:20;48.20;;;25.83;;
18162;SDS011;9206;50.994;4.538;2023-01-23T11:18:21;47.57;;;24.90;;
18162;SDS011;9206;50.994;4.538;2023-01-23T11:27:17;48.20;;;24.43;;
18162;SDS011;9206;50.994;4.538;2023-01-23T11:30:26;46.60;;;23.60;;
18162;SDS011;9206;50.994;4.538;2023-01-23T11:33:36;41.80;;;24.50;;
18162;SDS011;9206;50.994;4.538;2023-01-23T11:36:36;51.00;;;25.50;;
18162;SDS011;9206;50.994;4.538;2023-01-23T11:39:39;46.27;;;24.40;;
18162;SDS011;9206;50.994;4.538;2023-01-23T11:42:33;49.47;;;25.60;;
18162;SDS011;9206;50.994;4.538;2023-01-23T11:45:32;59.10;;;28.70;;
18162;SDS011;9206;50.994;4.538;2023-01-23T11:48:46;62.77;;;29.77;;
18162;SDS011;9206;50.994;4.538;2023-01-23T11:51:45;54.27;;;27.40;;
18162;SDS011;9206;50.994;4.538;2023-01-23T11:54:42;59.60;;;27.37;;
18162;SDS011;9206;50.994;4.538;2023-01-23T11:59:04;59.60;;;27.93;;
18162;SDS011;9206;50.994;4.538;2023-01-23T12:01:35;44.87;;;22.70;;
18162;SDS011;9206;50.994;4.538;2023-01-23T12:04:39;39.87;;;22.73;;
18162;SDS011;9206;50.994;4.538;2023-01-23T12:07:50;44.60;;;24.50;;
18162;SDS011;9206;50.994;4.538;2023-01-23T12:10:53;47.77;;;25.33;;
18162;SDS011;9206;50.994;4.538;2023-01-23T12:14:02;47.03;;;25.07;;
18162;SDS011;9206;50.994;4.538;2023-01-23T12:17:00;46.97;;;24.47;;
18162;SDS011;9206;50.994;4.538;2023-01-23T12:26:53;41.57;;;23.10;;
18162;SDS011;9206;50.994;4.538;2023-01-23T12:42:07;41.47;;;23.30;;
18162;SDS011;9206;50.994;4.538;2023-01-23T12:45:02;38.50;;;22.47;;
18162;SDS011;9206;50.994;4.538;2023-01-23T12:50:59;41.60;;;23.70;;
18162;SDS011;9206;50.994;4.538;2023-01-23T12:53:53;40.67;;;23.53;;
18162;SDS011;9206;50.994;4.538;2023-01-23T12:56:57;40.53;;;23.03;;
18162;SDS011;9206;50.994;4.538;2023-01-23T12:59:53;40.40;;;22.27;;
18162;SDS011;9206;50.994;4.538;2023-01-23T13:06:31;42.20;;;23.43;;
18162;SDS011;9206;50.994;4.538;2023-01-23T13:09:46;47.10;;;24.77;;
18162;SDS011;9206;50.994;4.538;2023-01-23T13:15:42;42.63;;;23.83;;
18162;SDS011;9206;50.994;4.538;2023-01-23T13:18:33;40.93;;;23.50;;
18162;SDS011;9206;50.994;4.538;2023-01-23T13:25:00;41.77;;;23.60;;
18162;SDS011;9206;50.994;4.538;2023-01-23T13:31:31;44.97;;;23.10;;
18162;SDS011;9206;50.994;4.538;2023-01-23T13:34:38;41.47;;;22.73;;
18162;SDS011;9206;50.994;4.538;2023-01-23T13:44:25;48.13;;;24.30;;
18162;SDS011;9206;50.994;4.538;2023-01-23T13:47:18;48.23;;;24.77;;
18162;SDS011;9206;50.994;4.538;2023-01-23T13:53:27;39.70;;;23.87;;
18162;SDS011;9206;50.994;4.538;2023-01-23T13:56:38;46.70;;;23.37;;
18162;SDS011;9206;50.994;4.538;2023-01-23T14:02:19;51.67;;;25.57;;
18162;SDS011;9206;50.994;4.538;2023-01-23T14:05:34;45.47;;;23.27;;
18162;SDS011;9206;50.994;4.538;2023-01-23T14:08:28;48.57;;;24.27;;
18162;SDS011;9206;50.994;4.538;2023-01-23T14:11:36;47.30;;;24.50;;
18162;SDS011;9206;50.994;4.538;2023-01-23T14:14:31;47.70;;;24.47;;
18162;SDS011;9206;50.994;4.538;2023-01-23T14:20:29;47.00;;;24.80;;
18162;SDS011;9206;50.994;4.538;2023-01-23T14:23:38;50.13;;;24.40;;
18162;SDS011;9206;50.994;4.538;2023-01-23T14:26:28;45.70;;;25.17;;
18162;SDS011;9206;50.994;4.538;2023-01-23T14:29:23;44.30;;;24.00;;
18162;SDS011;9206;50.994;4.538;2023-01-23T14:32:20;47.87;;;27.20;;
18162;SDS011;9206;50.994;4.538;2023-01-23T14:35:15;47.40;;;25.33;;
18162;SDS011;9206;50.994;4.538;2023-01-23T14:38:04;48.57;;;27.03;;
18162;SDS011;9206;50.994;4.538;2023-01-23T14:41:03;45.03;;;25.20;;
18162;SDS011;9206;50.994;4.538;2023-01-23T14:44:03;49.23;;;25.40;;
18162;SDS011;9206;50.994;4.538;2023-01-23T14:46:52;49.83;;;27.20;;
18162;SDS011;9206;50.994;4.538;2023-01-23T14:49:42;53.27;;;26.20;;
18162;SDS011;9206;50.994;4.538;2023-01-23T14:52:32;47.50;;;26.47;;
18162;SDS011;9206;50.994;4.538;2023-01-23T14:55:23;50.00;;;25.80;;
18162;SDS011;9206;50.994;4.538;2023-01-23T14:58:19;52.90;;;26.93;;
18162;SDS011;9206;50.994;4.538;2023-01-23T15:01:11;43.37;;;23.57;;
18162;SDS011;9206;50.994;4.538;2023-01-23T15:04:00;45.87;;;24.13;;
18162;SDS011;9206;50.994;4.538;2023-01-23T15:06:54;47.67;;;25.73;;
18162;SDS011;9206;50.994;4.538;2023-01-23T15:09:46;49.00;;;26.27;;
18162;SDS011;9206;50.994;4.538;2023-01-23T15:12:37;45.07;;;24.87;;
18162;SDS011;9206;50.994;4.538;2023-01-23T15:15:28;43.57;;;23.37;;
18162;SDS011;9206;50.994;4.538;2023-01-23T15:18:20;39.93;;;21.77;;
18162;SDS011;9206;50.994;4.538;2023-01-23T15:21:09;39.13;;;23.33;;
18162;SDS011;9206;50.994;4.538;2023-01-23T15:24:26;37.47;;;22.20;;
18162;SDS011;9206;50.994;4.538;2023-01-23T15:27:29;37.87;;;22.93;;
18162;SDS011;9206;50.994;4.538;2023-01-23T15:30:37;33.37;;;19.97;;
18162;SDS011;9206;50.994;4.538;2023-01-23T15:33:33;35.17;;;21.43;;
18162;SDS011;9206;50.994;4.538;2023-01-23T15:36:38;36.57;;;22.13;;
18162;SDS011;9206;50.994;4.538;2023-01-23T15:39:34;34.97;;;20.90;;
18162;SDS011;9206;50.994;4.538;2023-01-23T15:42:34;32.43;;;19.60;;
18162;SDS011;9206;50.994;4.538;2023-01-23T15:49:16;31.57;;;18.87;;
18162;SDS011;9206;50.994;4.538;2023-01-23T15:52:14;26.90;;;17.60;;
18162;SDS011;9206;50.994;4.538;2023-01-23T15:55:16;21.77;;;15.03;;
18162;SDS011;9206;50.994;4.538;2023-01-23T15:58:08;26.13;;;17.23;;
18162;SDS011;9206;50.994;4.538;2023-01-23T16:01:40;24.67;;;16.23;;
18162;SDS011;9206;50.994;4.538;2023-01-23T16:08:10;24.73;;;16.77;;
18162;SDS011;9206;50.994;4.538;2023-01-23T16:11:06;25.77;;;17.50;;
18162;SDS011;9206;50.994;4.538;2023-01-23T16:14:00;26.90;;;16.70;;
18162;SDS011;9206;50.994;4.538;2023-01-23T16:16:53;29.30;;;18.33;;
18162;SDS011;9206;50.994;4.538;2023-01-23T16:22:44;26.80;;;17.80;;
18162;SDS011;9206;50.994;4.538;2023-01-23T16:25:38;27.20;;;18.03;;
18162;SDS011;9206;50.994;4.538;2023-01-23T16:28:28;26.37;;;18.23;;
18162;SDS011;9206;50.994;4.538;2023-01-23T16:31:17;26.07;;;16.90;;
18162;SDS011;9206;50.994;4.538;2023-01-23T16:34:05;25.67;;;17.43;;
18162;SDS011;9206;50.994;4.538;2023-01-23T16:36:55;28.03;;;17.73;;
18162;SDS011;9206;50.994;4.538;2023-01-23T16:39:46;25.33;;;16.60;;
18162;SDS011;9206;50.994;4.538;2023-01-23T16:42:40;26.37;;;18.00;;
18162;SDS011;9206;50.994;4.538;2023-01-23T16:45:34;23.43;;;15.97;;
18162;SDS011;9206;50.994;4.538;2023-01-23T16:48:21;22.63;;;15.77;;
18162;SDS011;9206;50.994;4.538;2023-01-23T16:51:16;26.27;;;18.10;;
18162;SDS011;9206;50.994;4.538;2023-01-23T16:54:12;28.27;;;17.60;;
18162;SDS011;9206;50.994;4.538;2023-01-23T16:57:05;29.00;;;16.90;;
18162;SDS011;9206;50.994;4.538;2023-01-23T16:59:56;29.93;;;19.70;;
18162;SDS011;9206;50.994;4.538;2023-01-23T17:02:47;27.77;;;17.93;;
18162;SDS011;9206;50.994;4.538;2023-01-23T17:05:39;28.47;;;18.63;;
18162;SDS011;9206;50.994;4.538;2023-01-23T17:08:29;28.13;;;19.37;;
18162;SDS011;9206;50.994;4.538;2023-01-23T17:11:17;27.43;;;19.20;;
18162;SDS011;9206;50.994;4.538;2023-01-23T17:14:21;26.73;;;19.40;;
18162;SDS011;9206;50.994;4.538;2023-01-23T17:17:13;28.57;;;20.10;;
18162;SDS011;9206;50.994;4.538;2023-01-23T17:20:11;32.33;;;21.13;;
18162;SDS011;9206;50.994;4.538;2023-01-23T17:25:57;29.83;;;20.87;;
18162;SDS011;9206;50.994;4.538;2023-01-23T17:29:08;33.57;;;21.47;;
18162;SDS011;9206;50.994;4.538;2023-01-23T17:31:58;32.17;;;21.27;;
18162;SDS011;9206;50.994;4.538;2023-01-23T17:34:47;29.53;;;20.67;;
18162;SDS011;9206;50.994;4.538;2023-01-23T17:37:40;32.87;;;21.23;;
18162;SDS011;9206;50.994;4.538;2023-01-23T17:40:34;31.63;;;21.03;;
18162;SDS011;9206;50.994;4.538;2023-01-23T17:43:31;30.57;;;21.33;;
18162;SDS011;9206;50.994;4.538;2023-01-23T17:46:19;35.70;;;22.07;;
18162;SDS011;9206;50.994;4.538;2023-01-23T17:49:23;33.33;;;21.50;;
18162;SDS011;9206;50.994;4.538;2023-01-23T17:55:55;33.53;;;22.57;;
18162;SDS011;9206;50.994;4.538;2023-01-23T17:58:55;33.40;;;21.90;;
18162;SDS011;9206;50.994;4.538;2023-01-23T18:01:43;32.57;;;22.63;;
18162;SDS011;9206;50.994;4.538;2023-01-23T18:04:33;33.60;;;21.93;;
18162;SDS011;9206;50.994;4.538;2023-01-23T18:07:20;34.17;;;22.73;;
18162;SDS011;9206;50.994;4.538;2023-01-23T18:10:09;31.87;;;21.37;;
18162;SDS011;9206;50.994;4.538;2023-01-23T18:13:03;33.63;;;22.27;;
18162;SDS011;9206;50.994;4.538;2023-01-23T18:16:02;27.67;;;20.50;;
18162;SDS011;9206;50.994;4.538;2023-01-23T18:18:57;32.17;;;21.53;;
18162;SDS011;9206;50.994;4.538;2023-01-23T18:21:54;28.47;;;19.47;;
18162;SDS011;9206;50.994;4.538;2023-01-23T18:24:43;31.10;;;20.43;;
18162;SDS011;9206;50.994;4.538;2023-01-23T18:30:37;31.27;;;21.63;;
18162;SDS011;9206;50.994;4.538;2023-01-23T18:33:45;31.43;;;20.47;;
18162;SDS011;9206;50.994;4.538;2023-01-23T18:36:46;31.43;;;20.53;;
18162;SDS011;9206;50.994;4.538;2023-01-23T18:39:57;26.97;;;18.80;;
18162;SDS011;9206;50.994;4.538;2023-01-23T18:42:50;27.77;;;19.63;;
18162;SDS011;9206;50.994;4.538;2023-01-23T18:45:56;31.07;;;20.97;;
18162;SDS011;9206;50.994;4.538;2023-01-23T18:48:44;29.97;;;20.03;;
18162;SDS011;9206;50.994;4.538;2023-01-23T18:51:36;30.43;;;21.83;;
18162;SDS011;9206;50.994;4.538;2023-01-23T18:58:18;24.67;;;17.80;;
18162;SDS011;9206;50.994;4.538;2023-01-23T19:01:16;21.63;;;17.00;;
18162;SDS011;9206;50.994;4.538;2023-01-23T19:04:14;23.20;;;16.97;;
18162;SDS011;9206;50.994;4.538;2023-01-23T19:07:07;28.03;;;18.20;;
18162;SDS011;9206;50.994;4.538;2023-01-23T19:13:46;24.97;;;17.70;;
18162;SDS011;9206;50.994;4.538;2023-01-23T19:16:50;27.87;;;18.73;;
18162;SDS011;9206;50.994;4.538;2023-01-23T19:19:47;26.47;;;18.27;;
18162;SDS011;9206;50.994;4.538;2023-01-23T19:22:48;26.43;;;18.90;;
18162;SDS011;9206;50.994;4.538;2023-01-23T19:25:46;29.00;;;19.97;;
18162;SDS011;9206;50.994;4.538;2023-01-23T19:28:35;27.17;;;18.77;;
18162;SDS011;9206;50.994;4.538;2023-01-23T19:34:24;26.60;;;19.93;;
18162;SDS011;9206;50.994;4.538;2023-01-23T19:37:27;29.20;;;19.33;;
18162;SDS011;9206;50.994;4.538;2023-01-23T19:40:26;28.20;;;19.57;;
18162;SDS011;9206;50.994;4.538;2023-01-23T19:43:17;27.23;;;19.87;;
18162;SDS011;9206;50.994;4.538;2023-01-23T19:46:12;29.80;;;20.67;;
18162;SDS011;9206;50.994;4.538;2023-01-23T19:48:59;30.67;;;19.87;;
18162;SDS011;9206;50.994;4.538;2023-01-23T19:51:47;32.43;;;21.67;;
18162;SDS011;9206;50.994;4.538;2023-01-23T19:54:35;30.93;;;22.30;;
18162;SDS011;9206;50.994;4.538;2023-01-23T19:57:28;30.77;;;19.97;;
18162;SDS011;9206;50.994;4.538;2023-01-23T20:00:25;35.40;;;21.87;;
18162;SDS011;9206;50.994;4.538;2023-01-23T20:03:17;34.27;;;22.63;;
18162;SDS011;9206;50.994;4.538;2023-01-23T20:06:06;31.87;;;21.93;;
18162;SDS011;9206;50.994;4.538;2023-01-23T20:08:54;30.40;;;21.40;;
18162;SDS011;9206;50.994;4.538;2023-01-23T20:11:42;35.13;;;23.20;;
18162;SDS011;9206;50.994;4.538;2023-01-23T20:14:30;32.97;;;22.43;;
18162;SDS011;9206;50.994;4.538;2023-01-23T20:17:18;35.97;;;21.87;;
18162;SDS011;9206;50.994;4.538;2023-01-23T20:20:09;34.53;;;22.87;;
18162;SDS011;9206;50.994;4.538;2023-01-23T20:22:59;30.10;;;21.40;;
18162;SDS011;9206;50.994;4.538;2023-01-23T20:25:54;32.27;;;21.40;;